sensor_id;sensor_type;location;lat;lon;timestamp;temperature;humidity
21648;DHT22;10985;54.182;7.890;2024-03-23T00:55:13;7.50;99.90
21648;DHT22;10985;54.182;7.890;2024-03-23T00:57:39;7.50;99.90
21648;DHT22;10985;54.182;7.890;2024-03-23T01:00:05;7.50;99.90
21648;DHT22;10985;54.182;7.890;2024-03-23T01:02:32;7.50;99.90
21648;DHT22;10985;54.182;7.890;2024-03-23T01:04:57;7.50;99.90
21648;DHT22;10985;54.182;7.890;2024-03-23T01:07:23;7.50;99.90
21648;DHT22;10985;54.182;7.890;2024-03-23T01:09:48;7.50;99.90
21648;DHT22;10985;54.182;7.890;2024-03-23T01:12:14;7.40;99.90
21648;DHT22;10985;54.182;7.890;2024-03-23T01:14:39;7.50;99.90
21648;DHT22;10985;54.182;7.890;2024-03-23T01:17:05;7.40;99.90
21648;DHT22;10985;54.182;7.890;2024-03-23T01:19:30;7.40;99.90
21648;DHT22;10985;54.182;7.890;2024-03-23T01:21:56;7.40;99.90
21648;DHT22;10985;54.182;7.890;2024-03-23T01:24:21;7.40;99.90
21648;DHT22;10985;54.182;7.890;2024-03-23T01:26:47;7.40;99.90
21648;DHT22;10985;54.182;7.890;2024-03-23T01:29:12;7.40;99.90
21648;DHT22;10985;54.182;7.890;2024-03-23T01:31:38;7.40;99.90
21648;DHT22;10985;54.182;7.890;2024-03-23T01:34:03;7.40;99.90
21648;DHT22;10985;54.182;7.890;2024-03-23T01:36:29;7.40;99.90
21648;DHT22;10985;54.182;7.890;2024-03-23T01:38:54;7.40;99.90
21648;DHT22;10985;54.182;7.890;2024-03-23T01:41:20;7.40;99.90
21648;DHT22;10985;54.182;7.890;2024-03-23T01:43:45;7.40;99.90
21648;DHT22;10985;54.182;7.890;2024-03-23T01:46:11;7.40;99.90
21648;DHT22;10985;54.182;7.890;2024-03-23T01:48:37;7.40;99.90
21648;DHT22;10985;54.182;7.890;2024-03-23T01:51:03;7.30;99.90
21648;DHT22;10985;54.182;7.890;2024-03-23T01:53:29;7.30;99.90
21648;DHT22;10985;54.182;7.890;2024-03-23T01:55:56;7.30;99.90
21648;DHT22;10985;54.182;7.890;2024-03-23T01:58:22;7.30;99.90
21648;DHT22;10985;54.182;7.890;2024-03-23T02:00:48;7.40;99.90
21648;DHT22;10985;54.182;7.890;2024-03-23T02:03:26;7.40;99.90
21648;DHT22;10985;54.182;7.890;2024-03-23T02:05:56;7.30;99.90
21648;DHT22;10985;54.182;7.890;2024-03-23T02:08:22;7.30;99.90
21648;DHT22;10985;54.182;7.890;2024-03-23T02:10:49;7.30;99.90
21648;DHT22;10985;54.182;7.890;2024-03-23T02:13:15;7.30;99.90
21648;DHT22;10985;54.182;7.890;2024-03-23T02:15:41;7.30;99.90
21648;DHT22;10985;54.182;7.890;2024-03-23T02:18:10;7.30;99.90
21648;DHT22;10985;54.182;7.890;2024-03-23T02:20:36;7.30;99.90
21648;DHT22;10985;54.182;7.890;2024-03-23T02:23:02;7.30;99.90
21648;DHT22;10985;54.182;7.890;2024-03-23T02:25:28;7.30;99.90
21648;DHT22;10985;54.182;7.890;2024-03-23T02:27:54;7.30;99.90
21648;DHT22;10985;54.182;7.890;2024-03-23T02:30:20;7.30;99.90
21648;DHT22;10985;54.182;7.890;2024-03-23T02:32:45;7.30;99.90
21648;DHT22;10985;54.182;7.890;2024-03-23T02:35:11;7.30;99.90
21648;DHT22;10985;54.182;7.890;2024-03-23T02:37:36;7.30;99.90
21648;DHT22;10985;54.182;7.890;2024-03-23T02:40:02;7.30;99.90
21648;DHT22;10985;54.182;7.890;2024-03-23T02:42:28;7.30;99.90
21648;DHT22;10985;54.182;7.890;2024-03-23T02:44:54;7.30;99.90
21648;DHT22;10985;54.182;7.890;2024-03-23T02:47:19;7.30;99.90
21648;DHT22;10985;54.182;7.890;2024-03-23T02:49:45;7.20;99.90
21648;DHT22;10985;54.182;7.890;2024-03-23T02:52:10;7.20;99.90
21648;DHT22;10985;54.182;7.890;2024-03-23T02:54:36;7.30;99.90
21648;DHT22;10985;54.182;7.890;2024-03-23T02:57:02;7.30;99.90
21648;DHT22;10985;54.182;7.890;2024-03-23T02:59:27;7.30;99.90
21648;DHT22;10985;54.182;7.890;2024-03-23T03:01:53;7.30;99.90
21648;DHT22;10985;54.182;7.890;2024-03-23T03:04:18;7.30;99.90
21648;DHT22;10985;54.182;7.890;2024-03-23T03:06:47;7.30;99.90
21648;DHT22;10985;54.182;7.890;2024-03-23T03:09:12;7.30;99.90
21648;DHT22;10985;54.182;7.890;2024-03-23T03:11:38;7.30;99.90
21648;DHT22;10985;54.182;7.890;2024-03-23T03:14:03;7.30;99.90
21648;DHT22;10985;54.182;7.890;2024-03-23T03:16:29;7.30;99.90
21648;DHT22;10985;54.182;7.890;2024-03-23T03:18:54;7.30;99.90
21648;DHT22;10985;54.182;7.890;2024-03-23T03:21:20;7.20;99.90
21648;DHT22;10985;54.182;7.890;2024-03-23T03:23:45;7.20;99.90
21648;DHT22;10985;54.182;7.890;2024-03-23T03:26:11;7.20;99.90
21648;DHT22;10985;54.182;7.890;2024-03-23T03:28:36;7.20;99.90
21648;DHT22;10985;54.182;7.890;2024-03-23T03:31:02;7.20;99.90
21648;DHT22;10985;54.182;7.890;2024-03-23T03:33:27;7.20;99.90
21648;DHT22;10985;54.182;7.890;2024-03-23T03:35:54;7.20;99.90
21648;DHT22;10985;54.182;7.890;2024-03-23T03:38:19;7.20;99.90
21648;DHT22;10985;54.182;7.890;2024-03-23T03:40:45;7.20;99.90
21648;DHT22;10985;54.182;7.890;2024-03-23T03:43:10;7.20;99.90
21648;DHT22;10985;54.182;7.890;2024-03-23T03:45:36;7.20;99.90
21648;DHT22;10985;54.182;7.890;2024-03-23T03:48:02;7.20;99.90
21648;DHT22;10985;54.182;7.890;2024-03-23T03:50:28;7.20;99.90
21648;DHT22;10985;54.182;7.890;2024-03-23T03:52:53;7.20;99.90
21648;DHT22;10985;54.182;7.890;2024-03-23T03:55:19;7.20;99.90
21648;DHT22;10985;54.182;7.890;2024-03-23T03:57:44;7.20;99.90
21648;DHT22;10985;54.182;7.890;2024-03-23T04:00:10;7.10;99.90
21648;DHT22;10985;54.182;7.890;2024-03-23T04:02:37;7.10;99.90
21648;DHT22;10985;54.182;7.890;2024-03-23T04:05:03;7.10;99.90
21648;DHT22;10985;54.182;7.890;2024-03-23T04:07:28;7.10;99.90
21648;DHT22;10985;54.182;7.890;2024-03-23T04:09:54;7.10;99.90
21648;DHT22;10985;54.182;7.890;2024-03-23T04:12:20;7.10;99.90
21648;DHT22;10985;54.182;7.890;2024-03-23T04:14:45;7.10;99.90
21648;DHT22;10985;54.182;7.890;2024-03-23T04:17:11;7.10;99.90
21648;DHT22;10985;54.182;7.890;2024-03-23T04:19:37;7.00;99.90
21648;DHT22;10985;54.182;7.890;2024-03-23T04:22:02;7.00;99.90
21648;DHT22;10985;54.182;7.890;2024-03-23T04:24:29;7.00;99.90
21648;DHT22;10985;54.182;7.890;2024-03-23T04:26:54;7.00;99.90
21648;DHT22;10985;54.182;7.890;2024-03-23T04:29:20;7.00;99.90
21648;DHT22;10985;54.182;7.890;2024-03-23T04:31:45;7.00;99.90
21648;DHT22;10985;54.182;7.890;2024-03-23T04:34:11;7.00;99.90
21648;DHT22;10985;54.182;7.890;2024-03-23T04:36:36;7.00;99.90
21648;DHT22;10985;54.182;7.890;2024-03-23T04:39:02;7.00;99.90
21648;DHT22;10985;54.182;7.890;2024-03-23T04:41:28;7.00;99.90
21648;DHT22;10985;54.182;7.890;2024-03-23T04:43:53;7.00;99.90
21648;DHT22;10985;54.182;7.890;2024-03-23T04:46:19;7.00;99.90
21648;DHT22;10985;54.182;7.890;2024-03-23T04:48:46;6.90;99.90
21648;DHT22;10985;54.182;7.890;2024-03-23T04:51:20;6.90;99.90
21648;DHT22;10985;54.182;7.890;2024-03-23T04:53:46;6.90;99.90
21648;DHT22;10985;54.182;7.890;2024-03-23T04:56:13;6.90;99.90
21648;DHT22;10985;54.182;7.890;2024-03-23T04:58:39;6.90;99.90
21648;DHT22;10985;54.182;7.890;2024-03-23T05:01:04;6.90;99.90
21648;DHT22;10985;54.182;7.890;2024-03-23T05:03:30;7.00;99.90
21648;DHT22;10985;54.182;7.890;2024-03-23T05:05:55;7.00;99.90
21648;DHT22;10985;54.182;7.890;2024-03-23T05:08:21;7.00;99.90
21648;DHT22;10985;54.182;7.890;2024-03-23T05:10:46;7.00;99.90
21648;DHT22;10985;54.182;7.890;2024-03-23T05:13:12;7.00;99.90
21648;DHT22;10985;54.182;7.890;2024-03-23T05:15:37;7.00;99.90
21648;DHT22;10985;54.182;7.890;2024-03-23T05:18:04;7.00;99.90
21648;DHT22;10985;54.182;7.890;2024-03-23T05:20:31;7.00;99.90
21648;DHT22;10985;54.182;7.890;2024-03-23T05:22:56;7.00;99.90
21648;DHT22;10985;54.182;7.890;2024-03-23T05:25:22;7.00;99.90
21648;DHT22;10985;54.182;7.890;2024-03-23T05:27:48;7.00;99.90
21648;DHT22;10985;54.182;7.890;2024-03-23T05:30:13;7.00;99.90
21648;DHT22;10985;54.182;7.890;2024-03-23T05:32:39;7.00;99.90
21648;DHT22;10985;54.182;7.890;2024-03-23T05:35:06;7.00;99.90
21648;DHT22;10985;54.182;7.890;2024-03-23T05:37:32;7.00;99.90
21648;DHT22;10985;54.182;7.890;2024-03-23T05:39:59;7.00;99.90
21648;DHT22;10985;54.182;7.890;2024-03-23T05:42:25;7.00;99.90
21648;DHT22;10985;54.182;7.890;2024-03-23T05:44:50;7.00;99.90
21648;DHT22;10985;54.182;7.890;2024-03-23T05:47:16;7.00;99.90
21648;DHT22;10985;54.182;7.890;2024-03-23T05:49:42;7.00;99.90
21648;DHT22;10985;54.182;7.890;2024-03-23T05:52:09;7.00;99.90
21648;DHT22;10985;54.182;7.890;2024-03-23T05:54:35;7.10;99.90
21648;DHT22;10985;54.182;7.890;2024-03-23T05:57:01;7.10;99.90
21648;DHT22;10985;54.182;7.890;2024-03-23T05:59:27;7.10;99.90
21648;DHT22;10985;54.182;7.890;2024-03-23T06:01:52;7.10;99.90
21648;DHT22;10985;54.182;7.890;2024-03-23T06:04:18;7.10;99.90
21648;DHT22;10985;54.182;7.890;2024-03-23T06:06:43;7.10;99.90
21648;DHT22;10985;54.182;7.890;2024-03-23T06:09:09;7.10;99.90
21648;DHT22;10985;54.182;7.890;2024-03-23T06:11:34;7.10;99.90
21648;DHT22;10985;54.182;7.890;2024-03-23T06:14:00;7.10;99.90
21648;DHT22;10985;54.182;7.890;2024-03-23T06:16:25;7.20;99.90
21648;DHT22;10985;54.182;7.890;2024-03-23T06:18:52;7.20;99.90
21648;DHT22;10985;54.182;7.890;2024-03-23T06:21:18;7.20;99.90
21648;DHT22;10985;54.182;7.890;2024-03-23T06:23:44;7.30;99.90
21648;DHT22;10985;54.182;7.890;2024-03-23T06:26:17;7.30;99.90
21648;DHT22;10985;54.182;7.890;2024-03-23T06:28:42;7.10;99.90
21648;DHT22;10985;54.182;7.890;2024-03-23T06:31:11;7.10;99.90
21648;DHT22;10985;54.182;7.890;2024-03-23T06:33:37;7.20;99.90
21648;DHT22;10985;54.182;7.890;2024-03-23T06:36:04;7.20;99.90
21648;DHT22;10985;54.182;7.890;2024-03-23T06:38:30;7.30;99.90
21648;DHT22;10985;54.182;7.890;2024-03-23T06:40:55;7.30;99.90
21648;DHT22;10985;54.182;7.890;2024-03-23T06:43:21;7.40;99.90
21648;DHT22;10985;54.182;7.890;2024-03-23T06:45:56;7.40;99.90
21648;DHT22;10985;54.182;7.890;2024-03-23T06:48:21;7.40;99.90
21648;DHT22;10985;54.182;7.890;2024-03-23T06:50:48;7.40;99.90
21648;DHT22;10985;54.182;7.890;2024-03-23T06:53:14;7.40;99.90
21648;DHT22;10985;54.182;7.890;2024-03-23T06:55:40;7.40;99.90
21648;DHT22;10985;54.182;7.890;2024-03-23T06:58:06;7.40;99.90
21648;DHT22;10985;54.182;7.890;2024-03-23T07:00:32;7.50;99.90
21648;DHT22;10985;54.182;7.890;2024-03-23T07:02:58;7.50;99.90
21648;DHT22;10985;54.182;7.890;2024-03-23T07:05:24;7.60;99.90
21648;DHT22;10985;54.182;7.890;2024-03-23T07:07:50;7.70;99.90
21648;DHT22;10985;54.182;7.890;2024-03-23T07:10:15;7.70;99.90
21648;DHT22;10985;54.182;7.890;2024-03-23T07:12:41;7.70;99.90
21648;DHT22;10985;54.182;7.890;2024-03-23T07:15:07;7.70;99.90
21648;DHT22;10985;54.182;7.890;2024-03-23T07:17:33;7.60;99.90
21648;DHT22;10985;54.182;7.890;2024-03-23T07:20:03;7.50;99.90
21648;DHT22;10985;54.182;7.890;2024-03-23T07:22:30;7.50;99.90
21648;DHT22;10985;54.182;7.890;2024-03-23T07:24:55;7.40;99.90
21648;DHT22;10985;54.182;7.890;2024-03-23T07:27:21;7.40;99.90
21648;DHT22;10985;54.182;7.890;2024-03-23T07:29:46;7.30;99.90
21648;DHT22;10985;54.182;7.890;2024-03-23T07:32:12;7.40;99.90
21648;DHT22;10985;54.182;7.890;2024-03-23T07:34:37;7.40;99.90
21648;DHT22;10985;54.182;7.890;2024-03-23T07:37:03;7.40;99.90
21648;DHT22;10985;54.182;7.890;2024-03-23T07:39:29;7.40;99.90
21648;DHT22;10985;54.182;7.890;2024-03-23T07:41:54;7.40;99.90
21648;DHT22;10985;54.182;7.890;2024-03-23T07:44:19;7.40;99.90
21648;DHT22;10985;54.182;7.890;2024-03-23T07:46:45;7.40;99.90
21648;DHT22;10985;54.182;7.890;2024-03-23T07:49:11;7.40;99.90
21648;DHT22;10985;54.182;7.890;2024-03-23T07:51:36;7.40;99.90
21648;DHT22;10985;54.182;7.890;2024-03-23T07:54:04;7.40;99.90
21648;DHT22;10985;54.182;7.890;2024-03-23T07:56:30;7.50;99.90
21648;DHT22;10985;54.182;7.890;2024-03-23T07:58:55;7.60;99.90
21648;DHT22;10985;54.182;7.890;2024-03-23T08:01:20;7.70;99.90
21648;DHT22;10985;54.182;7.890;2024-03-23T08:03:46;7.70;99.90
21648;DHT22;10985;54.182;7.890;2024-03-23T08:06:14;7.60;99.90
21648;DHT22;10985;54.182;7.890;2024-03-23T08:08:41;7.60;99.90
21648;DHT22;10985;54.182;7.890;2024-03-23T08:11:06;7.70;99.90
21648;DHT22;10985;54.182;7.890;2024-03-23T08:13:33;7.70;99.90
21648;DHT22;10985;54.182;7.890;2024-03-23T08:15:59;7.70;99.90
21648;DHT22;10985;54.182;7.890;2024-03-23T08:18:25;7.70;99.90
21648;DHT22;10985;54.182;7.890;2024-03-23T08:21:01;7.80;99.90
21648;DHT22;10985;54.182;7.890;2024-03-23T08:23:29;7.90;99.90
21648;DHT22;10985;54.182;7.890;2024-03-23T08:26:01;7.90;99.90
21648;DHT22;10985;54.182;7.890;2024-03-23T08:28:27;8.00;99.90
21648;DHT22;10985;54.182;7.890;2024-03-23T08:30:53;8.00;99.90
21648;DHT22;10985;54.182;7.890;2024-03-23T08:33:19;8.00;99.90
21648;DHT22;10985;54.182;7.890;2024-03-23T08:35:59;8.10;99.90
21648;DHT22;10985;54.182;7.890;2024-03-23T08:38:25;8.20;99.90
21648;DHT22;10985;54.182;7.890;2024-03-23T08:41:10;8.30;99.90
21648;DHT22;10985;54.182;7.890;2024-03-23T08:43:40;8.40;99.90
21648;DHT22;10985;54.182;7.890;2024-03-23T08:46:23;8.50;99.90
21648;DHT22;10985;54.182;7.890;2024-03-23T08:48:49;8.70;99.90
21648;DHT22;10985;54.182;7.890;2024-03-23T08:51:16;8.80;99.90
21648;DHT22;10985;54.182;7.890;2024-03-23T08:53:42;9.00;99.90
21648;DHT22;10985;54.182;7.890;2024-03-23T08:56:09;9.20;99.90
21648;DHT22;10985;54.182;7.890;2024-03-23T08:58:36;9.20;99.90
21648;DHT22;10985;54.182;7.890;2024-03-23T09:01:07;9.20;99.90
21648;DHT22;10985;54.182;7.890;2024-03-23T09:03:32;9.20;99.90
21648;DHT22;10985;54.182;7.890;2024-03-23T09:05:58;9.30;99.90
21648;DHT22;10985;54.182;7.890;2024-03-23T09:08:24;9.40;99.90
21648;DHT22;10985;54.182;7.890;2024-03-23T09:10:50;9.40;99.90
21648;DHT22;10985;54.182;7.890;2024-03-23T09:13:15;9.50;99.90
21648;DHT22;10985;54.182;7.890;2024-03-23T09:15:51;9.60;99.90
21648;DHT22;10985;54.182;7.890;2024-03-23T09:18:19;9.80;99.90
21648;DHT22;10985;54.182;7.890;2024-03-23T09:20:45;10.10;99.90
21648;DHT22;10985;54.182;7.890;2024-03-23T09:23:10;10.40;99.90
21648;DHT22;10985;54.182;7.890;2024-03-23T09:25:37;10.80;99.90
21648;DHT22;10985;54.182;7.890;2024-03-23T09:28:03;11.10;99.90
21648;DHT22;10985;54.182;7.890;2024-03-23T09:30:29;11.40;99.90
21648;DHT22;10985;54.182;7.890;2024-03-23T09:32:54;11.70;99.90
21648;DHT22;10985;54.182;7.890;2024-03-23T09:35:20;12.00;99.90
21648;DHT22;10985;54.182;7.890;2024-03-23T09:37:45;12.30;99.90
21648;DHT22;10985;54.182;7.890;2024-03-23T09:40:11;12.50;99.90
21648;DHT22;10985;54.182;7.890;2024-03-23T09:42:37;12.90;99.90
21648;DHT22;10985;54.182;7.890;2024-03-23T09:45:05;13.10;99.90
21648;DHT22;10985;54.182;7.890;2024-03-23T09:47:32;13.20;99.90
21648;DHT22;10985;54.182;7.890;2024-03-23T09:49:59;13.00;99.90
21648;DHT22;10985;54.182;7.890;2024-03-23T09:52:25;12.80;99.90
21648;DHT22;10985;54.182;7.890;2024-03-23T09:54:51;12.60;99.90
21648;DHT22;10985;54.182;7.890;2024-03-23T09:57:16;12.80;99.90
21648;DHT22;10985;54.182;7.890;2024-03-23T09:59:42;13.10;99.90
21648;DHT22;10985;54.182;7.890;2024-03-23T10:02:07;13.50;99.90
21648;DHT22;10985;54.182;7.890;2024-03-23T10:04:40;13.90;99.90
21648;DHT22;10985;54.182;7.890;2024-03-23T10:07:21;14.10;99.90
21648;DHT22;10985;54.182;7.890;2024-03-23T10:09:48;14.50;99.90
21648;DHT22;10985;54.182;7.890;2024-03-23T10:12:16;15.10;99.90
21648;DHT22;10985;54.182;7.890;2024-03-23T10:14:43;15.60;99.90
21648;DHT22;10985;54.182;7.890;2024-03-23T10:17:20;15.80;99.90
21648;DHT22;10985;54.182;7.890;2024-03-23T10:19:50;16.40;99.90
21648;DHT22;10985;54.182;7.890;2024-03-23T10:22:21;16.80;99.90
21648;DHT22;10985;54.182;7.890;2024-03-23T10:24:48;17.30;99.90
21648;DHT22;10985;54.182;7.890;2024-03-23T10:27:18;17.80;99.90
21648;DHT22;10985;54.182;7.890;2024-03-23T10:29:46;18.10;99.90
21648;DHT22;10985;54.182;7.890;2024-03-23T10:32:12;18.20;99.90
21648;DHT22;10985;54.182;7.890;2024-03-23T10:34:39;18.40;99.90
21648;DHT22;10985;54.182;7.890;2024-03-23T10:37:05;18.60;99.90
21648;DHT22;10985;54.182;7.890;2024-03-23T10:39:40;18.90;99.90
21648;DHT22;10985;54.182;7.890;2024-03-23T10:42:07;18.80;99.90
21648;DHT22;10985;54.182;7.890;2024-03-23T10:44:33;19.10;99.90
21648;DHT22;10985;54.182;7.890;2024-03-23T10:47:00;19.40;99.90
21648;DHT22;10985;54.182;7.890;2024-03-23T10:49:28;19.50;99.90
21648;DHT22;10985;54.182;7.890;2024-03-23T10:51:56;19.90;99.90
21648;DHT22;10985;54.182;7.890;2024-03-23T10:54:22;20.20;99.90
21648;DHT22;10985;54.182;7.890;2024-03-23T10:56:51;20.30;99.90
21648;DHT22;10985;54.182;7.890;2024-03-23T10:59:18;20.80;99.90
21648;DHT22;10985;54.182;7.890;2024-03-23T11:01:57;21.40;99.90
21648;DHT22;10985;54.182;7.890;2024-03-23T11:04:33;21.60;99.90
21648;DHT22;10985;54.182;7.890;2024-03-23T11:06:59;21.80;99.90
21648;DHT22;10985;54.182;7.890;2024-03-23T11:14:48;22.40;99.90
21648;DHT22;10985;54.182;7.890;2024-03-23T11:17:18;22.10;99.90
21648;DHT22;10985;54.182;7.890;2024-03-23T11:19:44;21.40;99.90
21648;DHT22;10985;54.182;7.890;2024-03-23T11:22:10;21.20;99.90
21648;DHT22;10985;54.182;7.890;2024-03-23T11:24:35;20.70;99.90
21648;DHT22;10985;54.182;7.890;2024-03-23T11:27:01;20.40;99.90
21648;DHT22;10985;54.182;7.890;2024-03-23T11:29:29;20.30;99.90
21648;DHT22;10985;54.182;7.890;2024-03-23T11:31:55;20.50;99.90
21648;DHT22;10985;54.182;7.890;2024-03-23T11:34:21;20.80;99.90
21648;DHT22;10985;54.182;7.890;2024-03-23T11:36:47;20.90;99.90
21648;DHT22;10985;54.182;7.890;2024-03-23T11:39:17;21.30;99.90
21648;DHT22;10985;54.182;7.890;2024-03-23T11:41:54;21.60;99.90
21648;DHT22;10985;54.182;7.890;2024-03-23T11:44:21;22.00;99.90
21648;DHT22;10985;54.182;7.890;2024-03-23T11:46:48;22.50;99.90
21648;DHT22;10985;54.182;7.890;2024-03-23T11:49:27;22.80;99.90
21648;DHT22;10985;54.182;7.890;2024-03-23T11:51:54;23.10;99.90
21648;DHT22;10985;54.182;7.890;2024-03-23T11:54:21;23.40;99.90
21648;DHT22;10985;54.182;7.890;2024-03-23T11:57:01;23.70;99.90
21648;DHT22;10985;54.182;7.890;2024-03-23T11:59:37;24.10;99.90
21648;DHT22;10985;54.182;7.890;2024-03-23T12:02:12;24.20;99.90
21648;DHT22;10985;54.182;7.890;2024-03-23T12:04:41;24.40;99.90
21648;DHT22;10985;54.182;7.890;2024-03-23T12:07:15;24.60;99.20
21648;DHT22;10985;54.182;7.890;2024-03-23T12:09:41;24.70;99.90
21648;DHT22;10985;54.182;7.890;2024-03-23T12:12:13;25.00;99.20
21648;DHT22;10985;54.182;7.890;2024-03-23T12:14:41;25.20;98.90
21648;DHT22;10985;54.182;7.890;2024-03-23T12:19:35;25.60;99.50
21648;DHT22;10985;54.182;7.890;2024-03-23T12:22:00;25.60;97.60
21648;DHT22;10985;54.182;7.890;2024-03-23T12:24:26;25.60;96.40
21648;DHT22;10985;54.182;7.890;2024-03-23T12:26:51;25.60;97.10
21648;DHT22;10985;54.182;7.890;2024-03-23T12:29:17;25.50;97.20
21648;DHT22;10985;54.182;7.890;2024-03-23T12:31:43;25.60;96.40
21648;DHT22;10985;54.182;7.890;2024-03-23T12:34:09;25.50;97.10
21648;DHT22;10985;54.182;7.890;2024-03-23T12:36:34;25.40;97.20
21648;DHT22;10985;54.182;7.890;2024-03-23T12:39:00;25.40;96.10
21648;DHT22;10985;54.182;7.890;2024-03-23T12:41:25;25.40;96.10
21648;DHT22;10985;54.182;7.890;2024-03-23T12:43:51;25.50;96.50
21648;DHT22;10985;54.182;7.890;2024-03-23T12:46:16;25.50;95.20
21648;DHT22;10985;54.182;7.890;2024-03-23T12:48:44;25.50;95.90
21648;DHT22;10985;54.182;7.890;2024-03-23T12:51:10;25.50;95.20
21648;DHT22;10985;54.182;7.890;2024-03-23T12:53:35;25.70;95.40
21648;DHT22;10985;54.182;7.890;2024-03-23T12:56:01;25.50;93.80
21648;DHT22;10985;54.182;7.890;2024-03-23T12:58:27;25.20;93.60
21648;DHT22;10985;54.182;7.890;2024-03-23T13:00:52;25.10;92.40
21648;DHT22;10985;54.182;7.890;2024-03-23T13:03:18;24.80;94.20
21648;DHT22;10985;54.182;7.890;2024-03-23T13:05:43;24.70;95.10
21648;DHT22;10985;54.182;7.890;2024-03-23T13:08:09;24.40;94.80
21648;DHT22;10985;54.182;7.890;2024-03-23T13:10:34;24.20;94.90
21648;DHT22;10985;54.182;7.890;2024-03-23T13:12:59;24.10;95.20
21648;DHT22;10985;54.182;7.890;2024-03-23T13:15:25;23.70;95.10
21648;DHT22;10985;54.182;7.890;2024-03-23T13:17:50;23.10;96.20
21648;DHT22;10985;54.182;7.890;2024-03-23T13:20:17;22.70;96.40
21648;DHT22;10985;54.182;7.890;2024-03-23T13:22:43;22.00;96.60
21648;DHT22;10985;54.182;7.890;2024-03-23T13:25:08;21.20;98.40
21648;DHT22;10985;54.182;7.890;2024-03-23T13:27:34;20.10;99.90
21648;DHT22;10985;54.182;7.890;2024-03-23T13:29:59;19.40;99.90
21648;DHT22;10985;54.182;7.890;2024-03-23T13:32:24;18.70;99.90
21648;DHT22;10985;54.182;7.890;2024-03-23T13:34:50;17.90;99.90
21648;DHT22;10985;54.182;7.890;2024-03-23T13:37:16;17.60;99.90
21648;DHT22;10985;54.182;7.890;2024-03-23T13:39:41;17.20;99.90
21648;DHT22;10985;54.182;7.890;2024-03-23T13:42:09;16.90;99.90
21648;DHT22;10985;54.182;7.890;2024-03-23T13:44:35;16.60;99.90
21648;DHT22;10985;54.182;7.890;2024-03-23T13:47:01;16.30;99.90
21648;DHT22;10985;54.182;7.890;2024-03-23T13:49:28;16.00;99.90
21648;DHT22;10985;54.182;7.890;2024-03-23T13:51:55;15.90;99.90
21648;DHT22;10985;54.182;7.890;2024-03-23T13:54:21;15.70;99.90
21648;DHT22;10985;54.182;7.890;2024-03-23T13:56:51;15.50;99.90
21648;DHT22;10985;54.182;7.890;2024-03-23T13:59:17;15.30;99.90
21648;DHT22;10985;54.182;7.890;2024-03-23T14:01:43;15.10;99.90
21648;DHT22;10985;54.182;7.890;2024-03-23T14:04:09;15.00;99.90
21648;DHT22;10985;54.182;7.890;2024-03-23T14:06:35;14.80;99.90
21648;DHT22;10985;54.182;7.890;2024-03-23T14:09:00;14.60;99.90
21648;DHT22;10985;54.182;7.890;2024-03-23T14:11:26;14.50;99.90
21648;DHT22;10985;54.182;7.890;2024-03-23T14:13:52;14.40;99.90
21648;DHT22;10985;54.182;7.890;2024-03-23T14:16:18;14.10;99.90
21648;DHT22;10985;54.182;7.890;2024-03-23T14:18:46;13.90;99.90
21648;DHT22;10985;54.182;7.890;2024-03-23T14:21:12;13.70;99.90
21648;DHT22;10985;54.182;7.890;2024-03-23T14:23:37;13.60;99.90
21648;DHT22;10985;54.182;7.890;2024-03-23T14:26:03;13.50;99.90
21648;DHT22;10985;54.182;7.890;2024-03-23T14:28:29;13.30;99.90
21648;DHT22;10985;54.182;7.890;2024-03-23T14:30:55;13.20;99.90
21648;DHT22;10985;54.182;7.890;2024-03-23T14:33:21;13.10;99.90
21648;DHT22;10985;54.182;7.890;2024-03-23T14:35:56;12.80;99.90
21648;DHT22;10985;54.182;7.890;2024-03-23T14:38:25;12.70;99.90
21648;DHT22;10985;54.182;7.890;2024-03-23T14:40:50;12.60;99.90
21648;DHT22;10985;54.182;7.890;2024-03-23T14:43:18;12.50;99.90
21648;DHT22;10985;54.182;7.890;2024-03-23T14:46:05;12.50;99.90
21648;DHT22;10985;54.182;7.890;2024-03-23T14:48:31;12.30;99.90
21648;DHT22;10985;54.182;7.890;2024-03-23T14:50:58;12.10;99.90
21648;DHT22;10985;54.182;7.890;2024-03-23T14:53:24;12.00;99.90
21648;DHT22;10985;54.182;7.890;2024-03-23T14:55:50;11.80;99.90
21648;DHT22;10985;54.182;7.890;2024-03-23T14:58:16;11.60;99.90
21648;DHT22;10985;54.182;7.890;2024-03-23T15:00:41;11.60;99.90
21648;DHT22;10985;54.182;7.890;2024-03-23T15:03:07;11.40;99.90
21648;DHT22;10985;54.182;7.890;2024-03-23T15:05:32;11.30;99.90
21648;DHT22;10985;54.182;7.890;2024-03-23T15:07:58;11.30;99.90
21648;DHT22;10985;54.182;7.890;2024-03-23T15:10:23;11.20;99.90
21648;DHT22;10985;54.182;7.890;2024-03-23T15:12:49;11.10;99.90
21648;DHT22;10985;54.182;7.890;2024-03-23T15:15:15;11.00;99.90
21648;DHT22;10985;54.182;7.890;2024-03-23T15:17:40;11.00;99.90
21648;DHT22;10985;54.182;7.890;2024-03-23T15:20:10;10.90;99.90
21648;DHT22;10985;54.182;7.890;2024-03-23T15:22:37;11.00;99.90
21648;DHT22;10985;54.182;7.890;2024-03-23T15:25:03;10.90;99.90
21648;DHT22;10985;54.182;7.890;2024-03-23T15:27:28;10.90;99.90
21648;DHT22;10985;54.182;7.890;2024-03-23T15:29:56;10.90;99.90
21648;DHT22;10985;54.182;7.890;2024-03-23T15:32:22;10.90;99.90
21648;DHT22;10985;54.182;7.890;2024-03-23T15:34:48;10.90;99.90
21648;DHT22;10985;54.182;7.890;2024-03-23T15:37:13;10.80;99.90
21648;DHT22;10985;54.182;7.890;2024-03-23T15:39:40;10.70;99.90
21648;DHT22;10985;54.182;7.890;2024-03-23T15:42:07;10.60;99.90
21648;DHT22;10985;54.182;7.890;2024-03-23T15:44:32;10.60;99.90
21648;DHT22;10985;54.182;7.890;2024-03-23T15:46:57;10.60;99.90
21648;DHT22;10985;54.182;7.890;2024-03-23T15:49:23;10.60;99.90
21648;DHT22;10985;54.182;7.890;2024-03-23T15:51:48;10.50;99.90
21648;DHT22;10985;54.182;7.890;2024-03-23T15:54:14;10.50;99.90
21648;DHT22;10985;54.182;7.890;2024-03-23T15:56:39;10.40;99.90
21648;DHT22;10985;54.182;7.890;2024-03-23T15:59:05;10.30;99.90
21648;DHT22;10985;54.182;7.890;2024-03-23T16:01:32;10.30;99.90
21648;DHT22;10985;54.182;7.890;2024-03-23T16:04:01;10.20;99.90
21648;DHT22;10985;54.182;7.890;2024-03-23T16:06:27;10.20;99.90
21648;DHT22;10985;54.182;7.890;2024-03-23T16:08:52;10.10;99.90
21648;DHT22;10985;54.182;7.890;2024-03-23T16:11:18;10.10;99.90
21648;DHT22;10985;54.182;7.890;2024-03-23T16:13:44;10.10;99.90
21648;DHT22;10985;54.182;7.890;2024-03-23T16:16:09;10.10;99.90
21648;DHT22;10985;54.182;7.890;2024-03-23T16:18:36;10.10;99.90
21648;DHT22;10985;54.182;7.890;2024-03-23T16:21:03;10.10;99.90
21648;DHT22;10985;54.182;7.890;2024-03-23T16:23:29;10.10;99.90
21648;DHT22;10985;54.182;7.890;2024-03-23T16:25:55;10.10;99.90
21648;DHT22;10985;54.182;7.890;2024-03-23T16:28:23;10.10;99.90
21648;DHT22;10985;54.182;7.890;2024-03-23T16:30:59;10.00;99.90
21648;DHT22;10985;54.182;7.890;2024-03-23T16:33:26;10.00;99.90
21648;DHT22;10985;54.182;7.890;2024-03-23T16:38:24;9.90;99.90
21648;DHT22;10985;54.182;7.890;2024-03-23T16:40:57;9.90;99.90